createdAt,value
2022-08-06T00:00:58.196Z,77.67
2022-08-06T00:08:32.329Z,77.26
2022-08-06T00:16:16.230Z,78.07
2022-08-06T00:24:01.574Z,78.52
2022-08-06T00:31:36.967Z,79.86
2022-08-06T00:39:14.519Z,79.96
2022-08-06T00:46:50.451Z,80.33
2022-08-06T00:54:28.591Z,79.80
2022-08-06T01:02:11.006Z,81.13
2022-08-06T01:09:46.032Z,80.86
2022-08-06T01:17:38.812Z,82.68
2022-08-06T01:25:47.169Z,84.17
2022-08-06T01:33:30.498Z,85.17
2022-08-06T01:41:09.326Z,86.40
2022-08-06T01:48:46.290Z,87.74
2022-08-06T01:56:30.950Z,89.38
2022-08-06T02:04:08.139Z,91.16
2022-08-06T02:12:03.878Z,93.22
2022-08-06T02:19:47.759Z,94.44
2022-08-06T02:27:43.640Z,94.88
2022-08-06T02:35:29.639Z,96.71
2022-08-06T02:43:12.529Z,95.35
2022-08-06T02:50:52.485Z,94.46
2022-08-06T02:58:39.175Z,94.62
2022-08-06T03:06:17.651Z,97.03
2022-08-06T03:13:54.477Z,96.78
2022-08-06T03:21:34.376Z,99.05
2022-08-06T03:29:13.521Z,98.92
2022-08-06T03:36:51.030Z,99.60
2022-08-06T03:44:25.288Z,100.00
2022-08-06T03:52:05.477Z,100.00
2022-08-06T03:59:59.010Z,100.00
2022-08-06T04:07:54.943Z,100.00
2022-08-06T04:15:29.986Z,100.00
2022-08-06T04:23:09.574Z,100.00
2022-08-06T04:30:47.245Z,100.00
2022-08-06T04:38:27.953Z,100.00
2022-08-06T04:46:17.677Z,100.00
2022-08-06T04:53:56.635Z,100.00
2022-08-06T05:01:40.540Z,100.00
2022-08-06T05:09:38.553Z,100.00
2022-08-06T05:17:21.831Z,100.00
2022-08-06T05:25:09.838Z,100.00
2022-08-06T05:32:56.566Z,100.00
2022-08-06T05:40:52.266Z,100.00
2022-08-06T05:48:29.442Z,100.00
2022-08-06T05:56:11.655Z,100.00
2022-08-06T06:04:05.962Z,100.00
2022-08-06T06:11:47.013Z,97.15
2022-08-06T06:19:52.080Z,95.92
2022-08-06T06:27:45.606Z,94.47
2022-08-06T06:35:25.751Z,91.38
2022-08-06T06:43:14.131Z,89.54
2022-08-06T06:50:53.162Z,84.75
2022-08-06T06:58:35.303Z,76.01
2022-08-06T07:06:11.041Z,77.40
2022-08-06T07:13:51.182Z,76.74
2022-08-06T07:21:25.548Z,75.48
2022-08-06T07:29:03.714Z,75.02
2022-08-06T07:36:41.449Z,73.23
2022-08-06T07:44:17.922Z,71.55
2022-08-06T07:51:54.667Z,71.15
2022-08-06T07:59:33.190Z,69.53
2022-08-06T08:07:09.723Z,70.73
2022-08-06T08:14:51.183Z,68.91
2022-08-06T08:22:24.987Z,67.66
2022-08-06T08:30:00.122Z,64.59
2022-08-06T08:37:37.912Z,65.23
2022-08-06T08:45:18.240Z,57.59
2022-08-06T08:53:02.904Z,56.56
2022-08-06T09:00:40.481Z,55.90
2022-08-06T09:08:19.001Z,56.66
2022-08-06T09:16:19.208Z,54.63
2022-08-06T09:24:04.844Z,52.92
2022-08-06T09:31:44.820Z,55.68
2022-08-06T09:39:23.297Z,50.58
2022-08-06T09:47:01.339Z,49.07
2022-08-06T09:54:39.045Z,49.09
2022-08-06T10:02:16.868Z,47.00
2022-08-06T10:09:58.447Z,47.94
2022-08-06T10:17:49.695Z,47.01
2022-08-06T10:25:30.017Z,49.14
2022-08-06T10:33:18.056Z,44.52
2022-08-06T10:41:01.181Z,44.24
2022-08-06T10:50:22.594Z,45.38
2022-08-06T10:56:38.069Z,44.02
2022-08-06T11:04:31.984Z,44.99
2022-08-06T11:12:23.011Z,45.25
2022-08-06T11:19:58.739Z,43.95
2022-08-06T11:28:04.817Z,43.79
2022-08-06T11:35:53.662Z,43.62
2022-08-06T11:44:03.299Z,41.90
2022-08-06T11:51:42.647Z,42.18
2022-08-06T11:59:18.246Z,42.12
2022-08-06T12:06:54.010Z,40.95
2022-08-06T12:14:49.654Z,39.65
2022-08-06T12:22:29.953Z,39.37
2022-08-06T12:30:06.282Z,38.73
2022-08-06T12:37:48.115Z,37.89
2022-08-06T12:45:33.119Z,39.06
2022-08-06T12:53:21.500Z,39.23
2022-08-06T13:00:59.391Z,39.17
2022-08-06T13:08:37.694Z,37.35
2022-08-06T13:16:25.333Z,38.90
2022-08-06T13:24:04.579Z,37.20
2022-08-06T13:31:58.707Z,37.51
2022-08-06T13:39:35.786Z,36.13
2022-08-06T13:47:37.936Z,35.82
2022-08-06T13:55:11.097Z,35.54
2022-08-06T14:02:47.939Z,35.45
2022-08-06T14:10:29.623Z,35.63
2022-08-06T14:18:03.979Z,35.06
2022-08-06T14:26:00.502Z,35.16
2022-08-06T14:33:38.506Z,33.84
2022-08-06T14:41:50.660Z,32.26
2022-08-06T14:49:25.083Z,32.31
2022-08-06T14:57:14.882Z,32.46
2022-08-06T15:04:52.245Z,32.63
2022-08-06T15:12:34.582Z,31.10
2022-08-06T15:20:09.908Z,31.98
2022-08-06T15:27:45.442Z,33.31
2022-08-06T15:35:19.197Z,31.90
2022-08-06T15:42:56.359Z,30.99
2022-08-06T15:50:33.312Z,33.07
2022-08-06T15:58:12.199Z,31.45
2022-08-06T16:06:10.909Z,32.34
2022-08-06T16:13:54.600Z,31.56
2022-08-06T16:21:28.745Z,31.75
2022-08-06T16:29:09.600Z,32.40
2022-08-06T16:36:43.456Z,31.88
2022-08-06T16:44:18.764Z,31.66
2022-08-06T16:52:43.027Z,32.45
2022-08-06T17:00:05.910Z,32.70
2022-08-06T17:07:42.295Z,33.56
2022-08-06T17:15:18.345Z,33.96
2022-08-06T17:23:10.209Z,34.52
2022-08-06T17:30:46.064Z,35.69
2022-08-06T17:38:26.118Z,36.39
2022-08-06T17:46:26.264Z,35.03
2022-08-06T17:53:56.646Z,35.55
2022-08-06T18:01:43.950Z,36.39
2022-08-06T18:10:10.193Z,36.86
2022-08-06T18:17:17.243Z,37.44
2022-08-06T18:24:52.307Z,37.66
2022-08-06T18:32:28.272Z,38.34
2022-08-06T18:40:18.903Z,38.94
2022-08-06T18:47:55.487Z,39.83
2022-08-06T18:55:54.081Z,41.09
2022-08-06T19:03:37.855Z,41.89
2022-08-06T19:11:20.612Z,44.61
2022-08-06T19:18:57.563Z,46.20
2022-08-06T19:26:33.162Z,45.93
2022-08-06T19:34:08.937Z,47.01
2022-08-06T19:41:59.912Z,48.42
2022-08-06T19:49:40.545Z,49.09
2022-08-06T19:57:15.597Z,50.23
2022-08-06T20:04:53.298Z,50.98
2022-08-06T20:12:34.975Z,51.79
2022-08-06T20:20:11.565Z,51.35
2022-08-06T20:29:09.786Z,51.86
2022-08-06T20:35:42.533Z,52.40
2022-08-06T20:44:05.237Z,53.89
2022-08-06T20:51:28.572Z,55.60
2022-08-06T20:59:06.479Z,56.78
2022-08-06T21:06:41.793Z,57.66
2022-08-06T21:14:30.374Z,57.62
2022-08-06T21:22:06.433Z,56.85
2022-08-06T21:30:07.616Z,57.29
2022-08-06T21:37:58.225Z,58.71
2022-08-06T21:45:29.379Z,58.75
2022-08-06T21:53:53.179Z,59.27
2022-08-06T22:02:09.106Z,59.59
2022-08-06T22:09:15.429Z,60.57
2022-08-06T22:16:54.782Z,61.52
2022-08-06T22:24:30.011Z,63.07
2022-08-06T22:32:04.661Z,63.69
2022-08-06T22:39:41.092Z,64.90
2022-08-06T22:47:16.547Z,65.93
2022-08-06T22:54:58.810Z,65.62
2022-08-06T23:02:33.495Z,66.28
2022-08-06T23:10:10.628Z,67.89
2022-08-06T23:17:56.318Z,69.15
2022-08-06T23:26:00.762Z,70.15
2022-08-06T23:33:38.247Z,70.84
2022-08-06T23:41:19.307Z,71.13
2022-08-06T23:48:53.959Z,72.51
2022-08-06T23:56:29.858Z,73.48
